createdAt,value
2017-07-05T00:02:03.648Z,16.20
2017-07-05T00:04:29.998Z,16.20
2017-07-05T00:06:56.352Z,16.20
2017-07-05T00:09:22.695Z,16.10
2017-07-05T00:11:49.053Z,16.10
2017-07-05T00:14:15.446Z,16.10
2017-07-05T00:16:41.765Z,16.00
2017-07-05T00:19:08.162Z,16.00
2017-07-05T00:21:34.515Z,16.00
2017-07-05T00:24:00.883Z,15.90
2017-07-05T00:26:27.967Z,15.90
2017-07-05T00:28:54.334Z,15.90
2017-07-05T00:31:20.678Z,15.90
2017-07-05T00:33:47.057Z,15.90
2017-07-05T00:36:13.367Z,15.90
2017-07-05T00:38:39.782Z,15.90
2017-07-05T00:41:06.892Z,15.90
2017-07-05T00:43:33.219Z,15.90
2017-07-05T00:45:59.597Z,15.90
2017-07-05T00:48:25.961Z,15.90
2017-07-05T00:50:52.330Z,16.00
2017-07-05T00:53:18.667Z,15.90
2017-07-05T00:55:45.771Z,15.90
2017-07-05T00:58:12.180Z,15.90
2017-07-05T01:00:38.564Z,15.90
2017-07-05T01:03:05.044Z,15.90
2017-07-05T01:05:31.413Z,15.80
2017-07-05T01:07:57.765Z,15.70
2017-07-05T01:10:24.853Z,15.70
2017-07-05T01:12:51.199Z,15.70
2017-07-05T01:15:17.573Z,15.70
2017-07-05T01:17:44.658Z,15.60
2017-07-05T01:20:11.022Z,15.60
2017-07-05T01:22:37.384Z,15.60
2017-07-05T01:25:04.535Z,15.60
2017-07-05T01:27:30.894Z,15.60
2017-07-05T01:29:57.268Z,15.60
2017-07-05T01:32:23.653Z,15.50
2017-07-05T01:34:50.078Z,15.40
2017-07-05T01:37:16.429Z,15.40
2017-07-05T01:39:42.810Z,15.30
2017-07-05T01:42:09.202Z,15.30
2017-07-05T01:44:35.585Z,15.20
2017-07-05T01:47:02.714Z,15.20
2017-07-05T01:49:35.953Z,15.20
2017-07-05T01:52:02.326Z,15.20
2017-07-05T01:54:28.695Z,15.20
2017-07-05T01:56:55.127Z,15.10
2017-07-05T01:59:21.471Z,15.10
2017-07-05T02:01:47.882Z,15.10
2017-07-05T02:04:14.233Z,15.20
2017-07-05T02:06:40.583Z,15.10
2017-07-05T02:09:06.917Z,15.10
2017-07-05T02:11:33.271Z,15.10
2017-07-05T02:13:59.616Z,15.10
2017-07-05T02:16:26.715Z,15.00
2017-07-05T02:18:53.097Z,15.00
2017-07-05T02:21:19.482Z,15.00
2017-07-05T02:23:45.838Z,15.00
2017-07-05T02:26:12.207Z,15.00
2017-07-05T02:28:38.592Z,14.90
2017-07-05T02:31:04.913Z,14.90
2017-07-05T02:33:31.247Z,14.80
2017-07-05T02:35:58.362Z,14.80
2017-07-05T02:38:24.728Z,14.80
2017-07-05T02:40:51.107Z,14.80
2017-07-05T02:43:17.446Z,14.80
2017-07-05T02:45:43.826Z,14.70
2017-07-05T02:48:10.924Z,14.60
2017-07-05T02:50:37.313Z,14.60
2017-07-05T02:53:03.651Z,14.60
2017-07-05T02:55:30.014Z,14.60
2017-07-05T02:57:56.325Z,14.50
2017-07-05T03:00:22.715Z,14.50
2017-07-05T03:02:49.888Z,14.50
2017-07-05T03:05:16.252Z,14.50
2017-07-05T03:07:42.638Z,14.60
2017-07-05T03:10:09.720Z,14.60
2017-07-05T03:12:36.072Z,14.50
2017-07-05T03:15:02.403Z,14.70
2017-07-05T03:17:28.771Z,15.00
2017-07-05T03:19:55.129Z,15.20
2017-07-05T03:22:21.474Z,15.30
2017-07-05T03:24:47.856Z,15.50
2017-07-05T03:27:14.235Z,15.60
2017-07-05T03:29:40.619Z,15.70
2017-07-05T03:32:06.987Z,15.90
2017-07-05T03:34:33.313Z,15.90
2017-07-05T03:36:59.652Z,16.00
2017-07-05T03:39:26.023Z,16.00
2017-07-05T03:41:53.134Z,15.90
2017-07-05T03:44:19.478Z,15.90
2017-07-05T03:46:45.840Z,16.00
2017-07-05T03:49:12.211Z,16.00
2017-07-05T03:51:38.564Z,16.10
2017-07-05T03:54:04.896Z,16.10
2017-07-05T03:56:31.213Z,16.10
2017-07-05T03:58:57.603Z,16.10
2017-07-05T04:01:24.005Z,16.30
2017-07-05T04:03:51.175Z,16.30
2017-07-05T04:06:17.550Z,16.30
2017-07-05T04:08:43.943Z,16.30
2017-07-05T04:11:10.644Z,16.40
2017-07-05T04:13:36.997Z,16.40
2017-07-05T04:16:04.072Z,16.50
2017-07-05T04:18:30.416Z,16.50
2017-07-05T04:20:56.753Z,16.50
2017-07-05T04:23:23.109Z,16.50
2017-07-05T04:25:49.501Z,16.60
2017-07-05T04:28:15.848Z,16.70
2017-07-05T04:30:42.212Z,16.70
2017-07-05T04:33:09.304Z,16.60
2017-07-05T04:35:35.645Z,16.60
2017-07-05T04:38:02.012Z,16.60
2017-07-05T04:40:28.381Z,16.60
2017-07-05T04:42:54.755Z,16.60
2017-07-05T04:45:21.088Z,16.60
2017-07-05T04:47:47.511Z,16.70
2017-07-05T04:50:13.857Z,16.60
2017-07-05T04:52:40.965Z,16.80
2017-07-05T04:55:07.355Z,16.80
2017-07-05T04:57:33.699Z,17.00
2017-07-05T05:00:00.067Z,17.10
2017-07-05T05:02:26.457Z,17.20
2017-07-05T05:04:52.800Z,17.30
2017-07-05T05:07:19.167Z,17.40
2017-07-05T05:09:45.550Z,17.40
2017-07-05T05:12:11.899Z,17.40
2017-07-05T05:14:38.272Z,17.40
2017-07-05T05:17:04.656Z,17.40
2017-07-05T05:19:31.038Z,17.30
2017-07-05T05:21:58.128Z,17.30
2017-07-05T05:24:24.429Z,17.20
2017-07-05T05:26:50.769Z,17.20
2017-07-05T05:29:17.159Z,17.20
2017-07-05T05:31:43.606Z,17.30
2017-07-05T05:34:10.768Z,17.60
2017-07-05T05:36:37.924Z,17.70
2017-07-05T05:39:04.267Z,17.70
2017-07-05T05:41:30.622Z,17.90
2017-07-05T05:43:56.935Z,18.00
2017-07-05T05:46:23.288Z,18.10
2017-07-05T05:48:49.660Z,18.10
2017-07-05T05:51:16.044Z,18.30
2017-07-05T05:53:42.402Z,18.30
2017-07-05T05:56:08.760Z,18.40
2017-07-05T05:58:35.131Z,18.50
2017-07-05T06:01:01.461Z,18.60
2017-07-05T06:03:27.963Z,18.70
2017-07-05T06:05:54.279Z,18.80
2017-07-05T06:08:20.648Z,18.90
2017-07-05T06:10:46.977Z,19.00
2017-07-05T06:13:13.340Z,19.00
2017-07-05T06:15:39.702Z,19.00
2017-07-05T06:18:06.132Z,19.10
2017-07-05T06:20:32.496Z,19.10
2017-07-05T06:22:58.859Z,19.20
2017-07-05T06:25:25.968Z,19.40
2017-07-05T06:27:52.323Z,19.50
2017-07-05T06:30:18.682Z,19.60
2017-07-05T06:32:45.075Z,19.70
2017-07-05T06:35:11.503Z,19.90
2017-07-05T06:37:37.879Z,20.00
2017-07-05T06:40:04.255Z,20.10
2017-07-05T06:42:30.572Z,20.20
2017-07-05T06:44:56.945Z,20.20
2017-07-05T06:47:24.057Z,20.40
2017-07-05T06:49:50.419Z,20.30
2017-07-05T06:52:17.574Z,20.50
2017-07-05T06:54:44.743Z,20.60
2017-07-05T06:57:11.100Z,20.50
2017-07-05T06:59:37.463Z,20.60
2017-07-05T07:02:03.899Z,20.70
2017-07-05T07:04:30.269Z,20.80
2017-07-05T07:06:56.685Z,20.80
2017-07-05T07:09:23.078Z,20.80
2017-07-05T07:11:49.395Z,20.90
2017-07-05T07:14:15.728Z,21.00
2017-07-05T07:16:42.069Z,21.00
2017-07-05T07:19:08.444Z,21.10
2017-07-05T07:21:34.788Z,21.10
2017-07-05T07:24:08.925Z,21.30
2017-07-05T07:26:35.289Z,21.30
2017-07-05T07:29:01.691Z,21.40
2017-07-05T07:31:28.042Z,21.50
2017-07-05T07:33:55.160Z,21.60
2017-07-05T07:36:21.499Z,21.60
2017-07-05T07:38:47.876Z,21.70
2017-07-05T07:41:15.927Z,21.80
2017-07-05T07:43:43.044Z,22.10
2017-07-05T07:46:09.419Z,22.10
2017-07-05T07:48:35.776Z,22.10
2017-07-05T07:51:02.135Z,22.20
2017-07-05T07:53:28.512Z,22.30
2017-07-05T07:55:54.907Z,22.40
2017-07-05T07:58:21.271Z,22.40
2017-07-05T08:00:47.632Z,22.50
2017-07-05T08:03:14.039Z,22.50
2017-07-05T08:05:40.452Z,22.60
2017-07-05T08:08:07.592Z,22.80
2017-07-05T08:10:33.953Z,22.80
2017-07-05T08:13:00.301Z,22.90
2017-07-05T08:15:26.663Z,23.00
2017-07-05T08:17:53.003Z,23.00
2017-07-05T08:20:20.122Z,23.10
2017-07-05T08:22:46.479Z,23.00
2017-07-05T08:25:13.651Z,23.20
2017-07-05T08:27:40.033Z,23.20
2017-07-05T08:30:06.394Z,23.20
2017-07-05T08:32:32.822Z,23.40
2017-07-05T08:34:59.954Z,23.50
2017-07-05T08:37:26.319Z,23.50
2017-07-05T08:39:52.739Z,23.70
2017-07-05T08:42:19.093Z,23.80
2017-07-05T08:44:45.479Z,23.90
2017-07-05T08:47:11.839Z,24.10
2017-07-05T08:49:38.222Z,24.20
2017-07-05T08:52:04.573Z,24.30
2017-07-05T08:54:30.971Z,24.50
2017-07-05T08:56:57.336Z,24.50
2017-07-05T08:59:23.684Z,24.60
2017-07-05T09:01:50.153Z,24.70
2017-07-05T09:04:16.537Z,24.80
2017-07-05T09:06:42.919Z,24.90
2017-07-05T09:09:09.284Z,25.00
2017-07-05T09:11:35.716Z,25.10
2017-07-05T09:14:02.834Z,25.20
2017-07-05T09:16:29.212Z,25.20
2017-07-05T09:18:55.741Z,25.30
2017-07-05T09:21:22.147Z,25.30
2017-07-05T09:23:48.500Z,25.40
2017-07-05T09:26:15.765Z,25.60
2017-07-05T09:28:42.118Z,25.60
2017-07-05T09:31:08.488Z,25.70
2017-07-05T09:33:34.858Z,25.80
2017-07-05T09:36:01.214Z,25.90
2017-07-05T09:38:27.546Z,26.00
2017-07-05T09:40:53.897Z,26.10
2017-07-05T09:43:20.271Z,26.20
2017-07-05T09:45:46.659Z,26.20
2017-07-05T09:48:13.041Z,26.20
2017-07-05T09:50:39.428Z,26.30
2017-07-05T09:53:05.784Z,26.40
2017-07-05T09:55:32.150Z,26.60
2017-07-05T09:57:58.597Z,26.90
2017-07-05T10:00:25.259Z,27.20
2017-07-05T10:02:51.711Z,27.30
2017-07-05T10:05:18.064Z,27.50
2017-07-05T10:07:44.456Z,27.70
2017-07-05T10:10:11.561Z,28.00
2017-07-05T10:12:37.928Z,28.00
2017-07-05T10:15:04.291Z,28.20
2017-07-05T10:17:30.711Z,28.30
2017-07-05T10:19:57.100Z,28.50
2017-07-05T10:22:23.524Z,28.80
2017-07-05T10:24:49.888Z,29.10
2017-07-05T10:27:16.991Z,29.80
2017-07-05T10:29:43.347Z,29.80
2017-07-05T10:32:09.733Z,30.10
2017-07-05T10:34:36.061Z,30.40
2017-07-05T10:37:02.447Z,30.80
2017-07-05T10:39:29.554Z,31.20
2017-07-05T10:41:55.891Z,31.20
2017-07-05T10:44:22.313Z,31.40
2017-07-05T10:46:48.678Z,31.60
2017-07-05T10:49:14.998Z,31.80
2017-07-05T10:51:41.368Z,32.00
2017-07-05T10:54:07.723Z,32.20
2017-07-05T10:56:34.118Z,32.30
2017-07-05T10:59:00.515Z,32.30
2017-07-05T11:01:26.905Z,32.40
2017-07-05T11:03:53.314Z,32.50
2017-07-05T11:06:19.655Z,32.70
2017-07-05T11:08:45.984Z,32.90
2017-07-05T11:11:12.352Z,32.90
2017-07-05T11:13:38.726Z,32.80
2017-07-05T11:16:05.829Z,32.80
2017-07-05T11:18:32.190Z,32.70
2017-07-05T11:20:59.261Z,33.20
2017-07-05T11:23:25.606Z,33.10
2017-07-05T11:25:51.948Z,33.30
2017-07-05T11:28:18.423Z,33.20
2017-07-05T11:30:44.791Z,33.40
2017-07-05T11:33:11.151Z,33.50
2017-07-05T11:35:37.515Z,33.70
2017-07-05T11:38:03.876Z,34.00
2017-07-05T11:40:30.210Z,34.10
2017-07-05T11:42:56.569Z,34.00
2017-07-05T11:45:22.921Z,33.80
2017-07-05T11:47:49.307Z,34.00
2017-07-05T11:50:15.640Z,34.00
2017-07-05T11:52:41.958Z,33.70
2017-07-05T11:55:08.324Z,33.90
2017-07-05T11:57:34.729Z,34.30
2017-07-05T12:00:01.114Z,34.60
2017-07-05T12:02:27.578Z,34.90
2017-07-05T12:04:53.944Z,34.90
2017-07-05T12:07:20.303Z,34.80
2017-07-05T12:09:47.360Z,34.80
2017-07-05T12:12:13.723Z,34.80
2017-07-05T12:14:40.310Z,34.90
2017-07-05T12:17:07.050Z,35.00
2017-07-05T12:19:33.475Z,35.20
2017-07-05T12:21:59.819Z,35.30
2017-07-05T12:24:26.928Z,35.50
2017-07-05T12:26:53.260Z,35.50
2017-07-05T12:29:19.615Z,35.50
2017-07-05T12:31:46.727Z,35.30
2017-07-05T12:34:13.078Z,35.30
2017-07-05T12:36:39.453Z,35.40
2017-07-05T12:39:05.784Z,35.60
2017-07-05T12:41:32.101Z,36.00
2017-07-05T12:43:58.486Z,35.90
2017-07-05T12:46:24.850Z,35.70
2017-07-05T12:48:51.243Z,35.70
2017-07-05T12:51:17.592Z,35.70
2017-07-05T12:53:43.983Z,36.00
2017-07-05T12:56:10.371Z,36.20
2017-07-05T12:58:37.498Z,36.80
2017-07-05T13:01:03.840Z,36.70
2017-07-05T13:03:30.269Z,36.50
2017-07-05T13:05:57.377Z,36.70
2017-07-05T13:08:23.728Z,36.70
2017-07-05T13:10:50.059Z,36.70
2017-07-05T13:13:16.434Z,36.90
2017-07-05T13:15:42.831Z,37.10
2017-07-05T13:18:09.936Z,37.30
2017-07-05T13:20:36.332Z,37.20
2017-07-05T13:23:02.701Z,37.10
2017-07-05T13:25:29.095Z,37.40
2017-07-05T13:27:55.392Z,37.40
2017-07-05T13:30:21.830Z,37.30
2017-07-05T13:32:48.181Z,37.30
2017-07-05T13:35:14.577Z,37.30
2017-07-05T13:37:40.911Z,37.10
2017-07-05T13:40:07.262Z,36.90
2017-07-05T13:42:34.346Z,37.30
2017-07-05T13:45:00.720Z,37.30
2017-07-05T13:47:27.812Z,37.90
2017-07-05T13:49:54.195Z,37.90
2017-07-05T13:52:21.292Z,38.00
2017-07-05T13:54:47.686Z,38.00
2017-07-05T13:57:14.792Z,37.40
2017-07-05T13:59:41.186Z,37.40
2017-07-05T14:02:07.803Z,37.30
2017-07-05T14:04:34.149Z,37.40
2017-07-05T14:07:00.499Z,37.50
2017-07-05T14:09:26.882Z,37.40
2017-07-05T14:11:53.979Z,37.20
2017-07-05T14:14:20.325Z,37.20
2017-07-05T14:16:46.691Z,37.00
2017-07-05T14:19:13.788Z,36.10
2017-07-05T14:21:40.141Z,36.00
2017-07-05T14:24:06.531Z,36.30
2017-07-05T14:26:32.882Z,36.60
2017-07-05T14:28:59.241Z,36.70
2017-07-05T14:31:28.410Z,36.90
2017-07-05T14:33:54.782Z,36.90
2017-07-05T14:36:21.907Z,36.60
2017-07-05T14:38:48.250Z,36.60
2017-07-05T14:41:14.644Z,36.60
2017-07-05T14:43:40.975Z,36.30
2017-07-05T14:46:07.345Z,36.30
2017-07-05T14:48:33.682Z,36.60
2017-07-05T14:51:00.799Z,37.10
2017-07-05T14:53:27.168Z,37.10
2017-07-05T14:55:53.586Z,37.20
2017-07-05T14:58:20.725Z,37.60
2017-07-05T15:00:47.862Z,37.80
2017-07-05T15:03:14.335Z,37.80
2017-07-05T15:05:40.781Z,37.90
2017-07-05T15:08:07.112Z,38.00
2017-07-05T15:10:33.480Z,38.00
2017-07-05T15:12:59.833Z,37.80
2017-07-05T15:15:26.206Z,37.60
2017-07-05T15:17:52.576Z,37.60
2017-07-05T15:20:18.948Z,37.60
2017-07-05T15:22:45.308Z,37.60
2017-07-05T15:25:11.711Z,37.70
2017-07-05T15:27:38.139Z,37.60
2017-07-05T15:30:04.521Z,37.40
2017-07-05T15:32:30.882Z,37.20
2017-07-05T15:34:57.222Z,37.10
2017-07-05T15:37:23.568Z,36.80
2017-07-05T15:39:49.947Z,36.60
2017-07-05T15:42:16.313Z,36.50
2017-07-05T15:44:43.011Z,36.70
2017-07-05T15:47:09.387Z,36.80
2017-07-05T15:49:35.758Z,36.90
2017-07-05T15:52:02.112Z,37.00
2017-07-05T15:54:28.484Z,37.10
2017-07-05T15:56:54.837Z,37.30
2017-07-05T15:59:21.239Z,37.60
2017-07-05T16:01:47.640Z,37.60
2017-07-05T16:04:14.811Z,37.50
2017-07-05T16:06:41.224Z,37.40
2017-07-05T16:09:07.602Z,37.40
2017-07-05T16:11:34.028Z,37.20
2017-07-05T16:14:00.418Z,37.10
2017-07-05T16:16:27.569Z,36.40
2017-07-05T16:18:53.956Z,36.30
2017-07-05T16:21:20.354Z,36.10
2017-07-05T16:23:46.714Z,35.90
2017-07-05T16:26:13.064Z,35.60
2017-07-05T16:28:39.421Z,35.30
2017-07-05T16:31:05.952Z,35.20
2017-07-05T16:33:32.351Z,35.30
2017-07-05T16:35:58.717Z,35.30
2017-07-05T16:38:25.096Z,35.20
2017-07-05T16:40:51.727Z,34.90
2017-07-05T16:43:18.084Z,34.70
2017-07-05T16:45:45.204Z,34.30
2017-07-05T16:48:11.731Z,34.30
2017-07-05T16:50:38.096Z,34.00
2017-07-05T16:53:04.437Z,33.50
2017-07-05T16:55:30.805Z,33.00
2017-07-05T16:57:57.486Z,32.90
2017-07-05T17:00:24.217Z,33.00
2017-07-05T17:02:50.673Z,33.20
2017-07-05T17:05:17.042Z,33.30
2017-07-05T17:07:43.413Z,33.50
2017-07-05T17:10:10.789Z,33.50
2017-07-05T17:12:37.138Z,33.60
2017-07-05T17:15:03.498Z,33.60
2017-07-05T17:17:29.847Z,33.50
2017-07-05T17:19:56.507Z,33.50
2017-07-05T17:22:23.575Z,33.30
2017-07-05T17:24:49.992Z,33.40
2017-07-05T17:27:16.314Z,33.30
2017-07-05T17:29:42.730Z,33.20
2017-07-05T17:32:09.153Z,33.00
2017-07-05T17:34:35.527Z,32.70
2017-07-05T17:37:01.895Z,32.50
2017-07-05T17:39:28.274Z,32.30
2017-07-05T17:41:55.006Z,32.10
2017-07-05T17:44:21.367Z,31.90
2017-07-05T17:46:47.777Z,31.70
2017-07-05T17:49:14.118Z,31.40
2017-07-05T17:51:40.459Z,31.30
2017-07-05T17:54:06.850Z,31.10
2017-07-05T17:56:33.220Z,31.00
2017-07-05T17:58:59.872Z,30.90
2017-07-05T18:01:26.354Z,30.70
2017-07-05T18:03:54.887Z,30.60
2017-07-05T18:06:21.358Z,30.50
2017-07-05T18:08:48.451Z,30.20
2017-07-05T18:11:14.814Z,30.20
2017-07-05T18:13:41.182Z,30.00
2017-07-05T18:16:07.596Z,29.70
2017-07-05T18:18:34.709Z,29.20
2017-07-05T18:21:01.081Z,29.20
2017-07-05T18:23:27.438Z,29.10
2017-07-05T18:25:53.869Z,28.90
2017-07-05T18:28:20.233Z,28.80
2017-07-05T18:30:46.587Z,28.70
2017-07-05T18:33:13.700Z,28.20
2017-07-05T18:35:40.077Z,28.20
2017-07-05T18:38:07.194Z,27.80
2017-07-05T18:40:33.590Z,27.80
2017-07-05T18:42:59.937Z,27.60
2017-07-05T18:45:26.381Z,27.40
2017-07-05T18:47:52.792Z,27.20
2017-07-05T18:52:52.405Z,27.00
2017-07-05T18:55:18.869Z,26.90
2017-07-05T18:57:45.294Z,26.70
2017-07-05T19:00:12.563Z,26.50
2017-07-05T19:02:41.528Z,26.40
2017-07-05T19:05:08.289Z,26.40
2017-07-05T19:07:34.637Z,26.30
2017-07-05T19:10:00.981Z,26.20
2017-07-05T19:12:27.360Z,26.00
2017-07-05T19:14:53.914Z,25.90
2017-07-05T19:17:20.438Z,25.70
2017-07-05T19:19:47.610Z,25.40
2017-07-05T19:22:13.984Z,25.40
2017-07-05T19:24:40.367Z,25.30
2017-07-05T19:27:06.761Z,25.20
2017-07-05T19:29:33.143Z,25.00
2017-07-05T19:31:59.562Z,24.80
2017-07-05T19:34:26.686Z,24.60
2017-07-05T19:36:53.086Z,24.60
2017-07-05T19:39:19.474Z,24.50
2017-07-05T19:41:45.843Z,24.40
2017-07-05T19:44:12.207Z,24.30
2017-07-05T19:46:38.617Z,24.20
2017-07-05T19:49:05.017Z,24.10
2017-07-05T19:51:31.427Z,24.00
2017-07-05T19:53:57.789Z,23.90
2017-07-05T19:56:24.146Z,23.80
2017-07-05T19:58:50.511Z,23.70
2017-07-05T20:01:17.662Z,23.50
2017-07-05T20:03:44.180Z,23.50
2017-07-05T20:06:10.583Z,23.40
2017-07-05T20:08:37.036Z,23.30
2017-07-05T20:11:03.473Z,23.20
2017-07-05T20:13:29.834Z,23.10
2017-07-05T20:15:56.245Z,23.00
2017-07-05T20:18:23.368Z,22.80
2017-07-05T20:20:49.723Z,22.80
2017-07-05T20:23:16.126Z,22.80
2017-07-05T20:25:42.487Z,22.70
2017-07-05T20:28:09.609Z,22.50
2017-07-05T20:30:35.979Z,22.50
2017-07-05T20:33:02.343Z,22.50
2017-07-05T20:35:28.709Z,22.40
2017-07-05T20:37:55.094Z,22.30
2017-07-05T20:40:21.500Z,22.30
2017-07-05T20:42:47.862Z,22.20
2017-07-05T20:45:14.246Z,22.10
2017-07-05T20:47:40.634Z,22.10
2017-07-05T20:50:07.009Z,22.00
2017-07-05T20:52:33.381Z,21.90
2017-07-05T20:54:59.728Z,21.90
2017-07-05T20:57:26.055Z,21.80
2017-07-05T20:59:52.431Z,21.80
2017-07-05T21:02:18.881Z,21.70
2017-07-05T21:04:45.236Z,21.70
2017-07-05T21:07:11.653Z,21.70
2017-07-05T21:09:37.961Z,21.60
2017-07-05T21:12:04.371Z,21.60
2017-07-05T21:14:31.431Z,21.50
2017-07-05T21:16:57.792Z,21.50
2017-07-05T21:19:24.145Z,21.40
2017-07-05T21:21:50.801Z,21.40
2017-07-05T21:24:17.135Z,21.30
2017-07-05T21:26:44.237Z,21.20
2017-07-05T21:29:10.609Z,21.10
2017-07-05T21:31:36.941Z,21.10
2017-07-05T21:34:04.084Z,21.00
2017-07-05T21:36:30.420Z,21.00
2017-07-05T21:38:57.531Z,20.90
2017-07-05T21:41:23.902Z,20.90
2017-07-05T21:43:50.218Z,20.80
2017-07-05T21:46:16.543Z,20.70
2017-07-05T21:48:42.911Z,20.70
2017-07-05T21:51:09.286Z,20.60
2017-07-05T21:53:35.651Z,20.60
2017-07-05T21:56:02.746Z,20.50
2017-07-05T21:58:29.103Z,20.50
2017-07-05T22:00:55.578Z,20.40
2017-07-05T22:03:22.010Z,20.40
2017-07-05T22:05:48.362Z,20.40
2017-07-05T22:08:14.769Z,20.30
2017-07-05T22:10:41.128Z,20.30
2017-07-05T22:13:07.488Z,20.30
2017-07-05T22:15:33.817Z,20.20
2017-07-05T22:18:00.172Z,20.20
2017-07-05T22:20:27.327Z,20.20
2017-07-05T22:22:53.688Z,20.20
2017-07-05T22:25:20.044Z,20.10
2017-07-05T22:27:46.399Z,20.10
2017-07-05T22:30:13.492Z,20.00
2017-07-05T22:32:39.887Z,20.00
2017-07-05T22:35:06.237Z,19.90
2017-07-05T22:37:32.598Z,19.90
2017-07-05T22:39:58.980Z,19.80
2017-07-05T22:42:25.316Z,19.70
2017-07-05T22:44:51.703Z,19.70
2017-07-05T22:47:18.035Z,19.60
2017-07-05T22:49:44.381Z,19.60
2017-07-05T22:52:11.465Z,19.50
2017-07-05T22:54:37.825Z,19.50
2017-07-05T22:57:04.165Z,19.50
2017-07-05T22:59:30.521Z,19.40
2017-07-05T23:01:57.671Z,19.40
2017-07-05T23:04:24.083Z,19.40
2017-07-05T23:06:51.174Z,19.40
2017-07-05T23:09:17.503Z,19.30
2017-07-05T23:11:43.850Z,19.30
2017-07-05T23:14:10.243Z,19.40
2017-07-05T23:16:36.590Z,19.30
2017-07-05T23:19:03.033Z,19.40
2017-07-05T23:21:29.394Z,19.40
2017-07-05T23:23:56.479Z,19.40
2017-07-05T23:26:22.831Z,19.30
2017-07-05T23:28:49.219Z,19.30
2017-07-05T23:31:16.318Z,19.30
2017-07-05T23:33:42.662Z,19.30
2017-07-05T23:36:09.024Z,19.30
2017-07-05T23:38:35.373Z,19.30
2017-07-05T23:41:02.439Z,19.40
2017-07-05T23:43:28.841Z,19.30
2017-07-05T23:45:55.275Z,19.30
2017-07-05T23:48:22.366Z,19.30
2017-07-05T23:50:48.735Z,19.30
2017-07-05T23:53:15.815Z,19.20
2017-07-05T23:55:42.203Z,19.20
2017-07-05T23:58:08.585Z,19.20
